KSTL/STL METAR and TAF weather

Enter ICAO airport designator
Example: see airport list
Station Type Date Time Source
KSTL METAR 2016/08/27 10:51 UTC NOAA

KSTL 271051Z 24004KT 10SM FEW055 SCT120 BKN250 24/21 A3006 RMK AO2 SLP166 OCNL LTGIC DSNT W CB DSNT W MOV NE T02440206


Station Type Date Time Source
KSTL Decoded METAR 2016/08/27 10:51 UTC NOAA

LAMBERT-ST LOUIS INTERNATIONAL AIRPORT , MO, United States (KSTL) 38-45N 90-22W 171M
Aug 27, 2016 - 06:51 AM EDT / 2016.08.27 1051 UTC
Wind: from the WSW (240 degrees) at 5 MPH (4 KT):0
Visibility: 10 mile(s):0
Sky conditions: mostly cloudy
Weather: Cumulonimbus clouds, lightning observed
Temperature: 75.9 F (24.4 C)
Dew Point: 69.1 F (20.6 C)
Relative Humidity: 79%
Pressure (altimeter): 30.06 in. Hg (1017 hPa)
ob: KSTL 271051Z 24004KT 10SM FEW055 SCT120 BKN250 24/21 A3006 RMK AO2 SLP166 OCNL LTGIC DSNT W CB DSNT W MOV NE T02440206
cycle: 11

Station Type Date Time Source
KSTL TAF 2016/08/27 12:30 UTC NOAA

TAF KSTL 271127Z 2712/2818 20006KT P6SM SCT040 BKN120
FM280100 VRB04KT P6SM SCT050 BKN250
FM281000 VRB04KT 5SM BR SCT250
FM281400 14006KT P6SM SCT050 SCT250